Time;durP1;ratioP1;P1;durP2;ratioP2;P2;SDS_P1;SDS_P2;PMS_P1;PMS_P2;Temp;Humidity;BMP_temperature;BMP_pressure;BME280_temperature;BME280_humidity;BME280_pressure;Samples;Min_cycle;Max_cycle;Signal;HPM_P1;HPM_P2
2022/03/17 00:02:35;;;;;;;6.43;3.20;;;-4.10;1.00;;;-3.50;62.82;101296.09;4774951;29;120658;-93
2022/03/17 00:06:13;;;;;;;7.93;3.08;;;-4.20;1.00;;;-3.53;63.31;101296.44;4799266;29;122267;-92
2022/03/17 00:09:30;;;;;;;6.22;3.13;;;-4.30;1.00;;;-3.64;63.82;101289.69;4805289;29;129405;-92
2022/03/17 00:12:59;;;;;;;7.65;3.53;;;-4.10;1.00;;;-3.70;64.00;101295.69;4774654;29;129917;-91
2022/03/17 00:19:09;;;;;;;8.40;3.15;;;-4.20;1.00;;;-3.82;64.40;101299.72;4803235;29;118897;-93
2022/03/17 00:22:09;;;;;;;7.57;3.55;;;-4.30;1.00;;;-3.85;63.91;101297.41;4739015;29;128297;-91
2022/03/17 00:28:52;;;;;;;8.52;3.70;;;-4.60;1.00;;;-3.95;64.36;101302.09;4790988;29;120744;-92
2022/03/17 00:32:33;;;;;;;10.88;3.83;;;-4.60;1.00;;;-4.02;64.80;101301.94;4771619;29;118940;-92
2022/03/17 00:36:02;;;;;;;12.43;4.40;;;-4.70;1.00;;;-4.11;65.35;101303.81;4762527;29;130998;-92
2022/03/17 00:50:03;;;;;;;8.40;3.30;;;-4.80;1.00;;;-4.34;66.05;101315.13;4798743;29;130341;-90
2022/03/17 00:52:45;;;;;;;9.20;3.58;;;-4.90;1.00;;;-4.34;66.11;101320.41;4783848;29;130230;-91
2022/03/17 00:59:00;;;;;;;9.80;4.10;;;-5.10;1.00;;;-4.45;66.88;101314.66;4793093;29;120327;-90
2022/03/17 01:10:59;;;;;;;8.27;3.75;;;-5.00;1.00;;;-4.73;69.50;101321.13;4788201;29;121255;-90
2022/03/17 01:14:13;;;;;;;11.55;4.13;;;-5.10;1.00;;;-4.72;68.71;101328.09;4798028;29;128914;-91
2022/03/17 01:16:55;;;;;;;9.45;4.13;;;-5.30;1.00;;;-4.73;69.07;101331.72;4800124;29;127887;-91
2022/03/17 01:26:58;;;;;;;7.47;3.65;;;-5.40;1.00;;;-4.86;72.25;101334.06;4791762;29;129244;-90
2022/03/17 01:29:48;;;;;;;6.68;3.13;;;-5.40;1.00;;;-4.84;72.41;101334.72;4817478;29;129230;-89
2022/03/17 01:32:51;;;;;;;9.88;4.20;;;-5.40;1.00;;;-4.86;73.71;101347.31;4819325;29;118890;-89
2022/03/17 01:39:48;;;;;;;10.43;4.30;;;-5.30;1.00;;;-4.82;72.75;101342.50;4825350;29;130621;-88
2022/03/17 01:42:45;;;;;;;10.88;4.55;;;-5.50;1.00;;;-4.80;72.58;101335.19;4814123;29;130514;-88
2022/03/17 01:46:01;;;;;;;9.75;4.60;;;-5.50;1.00;;;-4.82;72.48;101342.50;4803064;29;119228;-92
2022/03/17 01:52:12;;;;;;;7.32;3.55;;;-5.60;1.00;;;-4.90;73.88;101352.06;4801792;29;129871;-91
2022/03/17 02:02:15;;;;;;;7.93;3.78;;;-5.70;1.00;;;-5.08;74.43;101354.88;4790239;29;118376;-89
2022/03/17 02:05:05;;;;;;;7.35;3.78;;;-5.70;1.00;;;-5.10;74.61;101356.84;4800882;29;131475;-91
2022/03/17 02:08:01;;;;;;;13.05;5.60;;;-5.70;1.00;;;-5.09;74.58;101358.50;4785833;29;129246;-90
2022/03/17 02:14:59;;;;;;;14.32;6.55;;;-5.60;1.00;;;-5.11;75.76;101370.25;4787351;29;121398;-94
2022/03/17 02:18:02;;;;;;;14.48;5.85;;;-5.60;1.00;;;-5.14;76.28;101370.56;4773239;29;129212;-93
2022/03/17 02:21:35;;;;;;;14.25;5.40;;;-5.70;1.00;;;-5.18;76.66;101370.06;4789656;29;130908;-92
2022/03/17 02:27:12;;;;;;;13.98;5.78;;;-5.60;1.00;;;-5.09;75.91;101382.34;4818429;29;118697;-94
2022/03/17 02:30:19;;;;;;;12.65;5.35;;;-5.70;1.00;;;-5.10;76.45;101377.22;4785679;29;128822;-93
2022/03/17 02:32:49;;;;;;;10.52;5.10;;;-5.70;1.00;;;-5.07;75.61;101382.19;4800941;29;129721;-90
2022/03/17 02:35:24;;;;;;;11.68;5.10;;;-5.80;1.00;;;-5.09;76.68;101387.63;4801390;29;118112;-89
2022/03/17 02:37:56;;;;;;;12.65;4.88;;;-5.80;1.00;;;-5.09;76.72;101376.22;4782708;29;117523;-91
2022/03/17 02:40:27;;;;;;;8.93;4.38;;;-5.80;1.00;;;-5.09;77.06;101387.63;4796291;29;128953;-93
2022/03/17 02:57:27;;;;;;;12.10;4.85;;;-5.80;1.00;;;-5.24;77.44;101397.19;4757652;29;127853;-94
2022/03/17 03:14:55;;;;;;;8.68;4.03;;;-6.00;1.00;;;-5.50;79.52;101424.56;4798745;29;120716;-92
2022/03/17 03:20:59;;;;;;;9.77;3.88;;;-6.00;1.00;;;-5.46;78.64;101431.19;4785653;29;130042;-92
2022/03/17 03:24:10;;;;;;;9.93;4.88;;;-6.10;1.00;;;-5.47;78.70;101424.25;4782330;29;128109;-94
2022/03/17 03:27:00;;;;;;;9.95;4.55;;;-6.10;1.00;;;-5.41;78.13;101433.34;4803160;29;119552;-93
2022/03/17 03:29:33;;;;;;;9.98;4.63;;;-6.10;1.00;;;-5.42;78.90;101432.53;4786741;29;118548;-93
2022/03/17 03:32:05;;;;;;;7.90;3.95;;;-6.10;1.00;;;-5.35;78.43;101431.91;4766937;29;128323;-91
2022/03/17 03:39:18;;;;;;;10.77;4.93;;;-6.20;1.00;;;-5.49;78.09;101441.25;4820030;29;119766;-92
2022/03/17 03:41:57;;;;;;;8.60;3.45;;;-6.20;1.00;;;-5.43;78.09;101451.22;4818475;29;117520;-91
2022/03/17 03:44:28;;;;;;;10.90;4.57;;;-6.20;1.00;;;-5.47;78.20;101448.06;4800718;29;129238;-93
2022/03/17 03:47:17;;;;;;;11.63;4.80;;;-6.20;1.00;;;-5.46;79.24;101446.25;4803785;29;128284;-90
2022/03/17 03:49:55;;;;;;;10.48;4.95;;;-6.30;1.00;;;-5.45;79.01;101456.66;4805174;29;119533;-92
2022/03/17 03:52:27;;;;;;;9.75;4.97;;;-6.20;1.00;;;-5.44;77.90;101454.84;4785456;29;118146;-93
2022/03/17 03:55:14;;;;;;;12.80;4.95;;;-6.30;1.00;;;-5.55;78.90;101457.78;4770150;29;129648;-94
2022/03/17 03:57:54;;;;;;;14.00;4.60;;;-6.30;1.00;;;-5.60;78.53;101466.19;4800692;29;129624;-92
2022/03/17 04:00:43;;;;;;;11.95;5.30;;;-6.40;1.00;;;-5.65;79.16;101468.47;4821048;29;118915;-90
2022/03/17 04:03:35;;;;;;;13.43;5.28;;;-6.40;1.00;;;-5.71;79.95;101464.63;4790834;29;118267;-91
2022/03/17 04:06:07;;;;;;;13.55;5.55;;;-6.50;1.00;;;-5.66;79.24;101467.63;4775904;29;128251;-92
2022/03/17 04:13:12;;;;;;;12.07;5.40;;;-6.60;1.00;;;-5.78;79.71;101479.44;4790375;29;121342;-93
2022/03/17 04:15:57;;;;;;;9.05;4.35;;;-6.60;1.00;;;-5.71;80.19;101472.56;4804377;29;121768;-91
2022/03/17 04:21:52;;;;;;;8.45;4.60;;;-6.60;1.00;;;-5.63;79.69;101477.06;4801738;29;128297;-93
2022/03/17 04:25:31;;;;;;;11.07;4.88;;;-6.60;1.00;;;-5.67;79.27;101491.59;4804091;29;119085;-95
2022/03/17 04:29:07;;;;;;;12.85;4.63;;;-6.50;1.00;;;-5.71;79.41;101490.25;4819603;29;118928;-91
2022/03/17 04:35:36;;;;;;;12.88;5.22;;;-6.50;1.00;;;-5.51;79.05;101501.47;4789069;29;128950;-94
2022/03/17 04:41:08;;;;;;;13.98;5.63;;;-6.20;1.00;;;-5.24;79.78;101503.91;4805006;29;119611;-93
2022/03/17 04:43:44;;;;;;;12.73;4.97;;;-6.10;1.00;;;-5.13;79.74;101500.16;4786667;29;130257;-92
2022/03/17 04:46:17;;;;;;;57.47;29.20;;;-6.00;1.00;;;-5.03;79.63;101504.47;4793920;29;128623;-94
2022/03/17 04:48:58;;;;;;;41.15;22.33;;;-5.90;1.00;;;-4.94;78.98;101506.19;4821009;29;118802;-91
2022/03/17 04:55:10;;;;;;;12.95;5.65;;;-5.70;1.00;;;-4.98;79.96;101521.56;4796270;29;129773;-93
2022/03/17 04:58:31;;;;;;;13.93;5.82;;;-5.50;1.00;;;-4.82;79.10;101518.16;4775252;29;128316;-92
2022/03/17 05:01:29;;;;;;;14.93;6.07;;;-5.40;1.00;;;-4.75;78.91;101524.47;4804331;29;120800;-94
2022/03/17 05:04:14;;;;;;;12.32;5.38;;;-5.20;1.00;;;-4.52;78.19;101531.81;4819775;29;118941;-93
2022/03/17 05:07:50;;;;;;;11.48;6.57;;;-5.00;1.00;;;-4.39;77.92;101532.19;4811116;29;128960;-93
2022/03/17 05:10:47;;;;;;;13.60;6.50;;;-4.90;1.00;;;-4.25;77.74;101536.00;4812819;29;129087;-94
2022/03/17 05:13:36;;;;;;;14.32;6.32;;;-4.70;1.00;;;-4.06;76.90;101534.88;4776812;29;120911;-93
2022/03/17 05:16:25;;;;;;;11.73;6.18;;;-4.60;1.00;;;-3.81;76.12;101542.81;4790440;29;120171;-94
2022/03/17 05:19:17;;;;;;;12.63;7.30;;;-4.50;1.00;;;-3.72;76.10;101555.09;4788817;29;128255;-94
2022/03/17 05:28:58;;;;;;;11.77;6.25;;;-4.10;1.00;;;-3.17;72.79;101552.69;4788148;29;118999;-94
2022/03/17 05:37:44;;;;;;;10.05;5.85;;;-3.70;1.00;;;-2.92;70.66;101564.88;4790793;29;119931;-95
2022/03/17 05:40:29;;;;;;;11.27;5.65;;;-3.60;1.00;;;-2.59;69.74;101575.38;4792192;29;118749;-94
2022/03/17 05:43:53;;;;;;;12.50;6.18;;;-3.40;1.00;;;-2.25;68.58;101571.53;4762700;29;129213;-95
2022/03/17 05:46:30;;;;;;;15.40;6.85;;;-3.30;1.00;;;-1.88;68.24;101567.28;4819514;29;127418;-93
2022/03/17 05:49:13;;;;;;;17.40;6.55;;;-3.10;1.00;;;-1.67;67.00;101568.44;4790145;29;118079;-92
2022/03/17 05:51:57;;;;;;;13.10;6.00;;;-3.00;1.00;;;-1.70;65.74;101574.97;4811580;29;118123;-92
2022/03/17 05:54:34;;;;;;;16.55;7.72;;;-2.80;1.00;;;-1.49;64.94;101576.94;4812334;29;129264;-91
2022/03/17 05:57:16;;;;;;;14.88;6.10;;;-2.70;1.00;;;-1.42;64.40;101570.91;4763117;29;128643;-91
2022/03/17 06:00:12;;;;;;;15.25;6.20;;;-2.50;1.00;;;-1.22;63.18;101572.03;4805922;29;119499;-95
2022/03/17 06:02:51;;;;;;;17.42;7.07;;;-2.40;1.00;;;-1.02;63.05;101579.50;4794533;29;117120;-93
2022/03/17 06:06:03;;;;;;;17.83;7.22;;;-2.20;1.00;;;-0.80;62.55;101575.06;4823245;29;130192;-93
2022/03/17 06:08:40;;;;;;;14.95;5.80;;;-2.10;1.00;;;-0.51;61.74;101584.88;4778093;29;129322;-91
2022/03/17 06:11:29;;;;;;;18.98;7.70;;;-1.90;1.00;;;-0.66;60.58;101576.06;4828021;29;122094;-92
2022/03/17 06:38:15;;;;;;;11.98;5.47;;;-0.30;1.00;;;1.53;50.71;101591.44;4810472;29;119054;-94
2022/03/17 06:51:54;;;;;;;16.75;5.47;;;0.40;1.00;;;1.63;46.57;101591.84;4791140;29;119144;-93
2022/03/17 06:59:05;;;;;;;13.25;5.45;;;0.60;1.00;;;2.34;44.63;101593.25;4805714;29;132201;-91
2022/03/17 07:01:52;;;;;;;9.68;4.78;;;0.90;1.00;;;1.71;44.31;101593.53;4809713;29;128735;-91
2022/03/17 07:07:46;;;;;;;11.98;5.28;;;1.10;1.00;;;2.31;43.27;101582.94;4809459;29;119311;-90
2022/03/17 07:10:27;;;;;;;11.20;5.40;;;1.30;1.00;;;2.03;43.48;101577.75;4794135;29;129841;-93
2022/03/17 07:13:01;;;;;;;11.75;5.78;;;1.20;1.00;;;2.67;43.28;101589.75;4807840;29;130128;-91
2022/03/17 07:15:30;;;;;;;11.57;5.10;;;1.50;1.00;;;2.71;42.17;101588.28;4801242;29;122241;-91
2022/03/17 07:17:58;;;;;;;10.80;4.78;;;1.60;1.00;;;2.66;41.82;101590.75;4785812;29;120092;-92
2022/03/17 07:20:27;;;;;;;12.27;5.05;;;1.70;1.00;;;2.87;41.48;101592.41;4800554;29;129496;-93
2022/03/17 07:22:57;;;;;;;9.40;4.70;;;1.80;1.00;;;3.04;40.85;101592.78;4801325;29;128482;-93
2022/03/17 07:25:27;;;;;;;14.75;5.55;;;1.90;1.00;;;3.33;40.12;101586.06;4801571;29;119220;-92
2022/03/17 07:27:57;;;;;;;12.23;5.63;;;2.00;1.00;;;3.13;39.91;101583.47;4801919;29;120852;-93
2022/03/17 07:30:26;;;;;;;10.43;5.07;;;2.00;1.00;;;3.46;38.72;101585.22;4801236;29;128526;-93
2022/03/17 07:32:58;;;;;;;12.75;5.50;;;2.10;1.00;;;3.48;38.59;101599.25;4801083;29;128837;-88
2022/03/17 07:35:27;;;;;;;10.68;5.45;;;2.30;1.00;;;3.58;38.47;101599.63;4798903;29;119726;-89
2022/03/17 07:37:58;;;;;;;8.15;4.35;;;2.40;1.00;;;3.15;38.04;101588.63;4777859;29;119069;-91
2022/03/17 07:40:37;;;;;;;10.30;4.60;;;2.30;1.00;;;2.98;38.25;101594.44;4781791;29;129622;-88
2022/03/17 07:43:57;;;;;;;12.35;5.70;;;2.30;1.00;;;2.74;38.00;101597.78;4819627;29;129171;-90
2022/03/17 07:47:12;;;;;;;11.23;5.32;;;2.30;1.00;;;3.74;36.75;101592.09;4817651;29;121043;-91
2022/03/17 07:49:43;;;;;;;8.65;4.47;;;2.60;1.00;;;3.55;37.20;101592.00;4814149;29;119371;-91
2022/03/17 07:52:15;;;;;;;8.07;4.45;;;2.50;1.00;;;3.56;36.98;101596.31;4768726;29;132545;-92
2022/03/17 07:54:49;;;;;;;10.65;5.20;;;2.50;1.00;;;3.69;36.74;101586.53;4803016;29;130892;-87
2022/03/17 07:57:19;;;;;;;10.02;4.53;;;2.60;1.00;;;3.74;35.99;101594.78;4768134;29;118874;-89
2022/03/17 07:59:48;;;;;;;10.02;4.07;;;2.70;1.00;;;4.28;36.10;101596.09;4782955;29;118603;-88
2022/03/17 08:02:19;;;;;;;8.05;4.03;;;2.90;1.00;;;4.58;36.13;101600.84;4799620;29;129831;-88
2022/03/17 08:04:50;;;;;;;11.35;4.80;;;3.00;1.00;;;4.68;35.37;101603.03;4783667;29;129862;-89
2022/03/17 08:07:19;;;;;;;7.15;3.88;;;3.10;1.00;;;4.88;35.02;101602.84;4780713;29;122239;-89
2022/03/17 08:09:49;;;;;;;32.35;5.82;;;3.30;1.00;;;5.11;35.12;101601.38;4782686;29;121537;-90
2022/03/17 08:12:22;;;;;;;11.70;4.07;;;3.40;1.00;;;5.31;33.94;101601.97;4767576;29;128568;-89
2022/03/17 08:14:52;;;;;;;9.52;4.47;;;3.50;1.00;;;4.44;33.98;101604.66;4785029;29;129223;-89
2022/03/17 08:17:21;;;;;;;13.38;4.40;;;3.30;1.00;;;4.42;34.42;101598.69;4799117;29;119268;-87
2022/03/17 08:19:53;;;;;;;7.85;3.70;;;3.20;1.00;;;4.15;34.46;101606.94;4798476;29;120432;-90
2022/03/17 08:22:25;;;;;;;6.13;3.30;;;3.20;1.00;;;4.54;34.20;101607.69;4798584;29;129405;-90
2022/03/17 08:25:00;;;;;;;11.70;3.90;;;3.40;1.00;;;4.92;34.76;101603.22;4771480;29;129406;-88
2022/03/17 08:27:30;;;;;;;6.43;3.58;;;3.50;1.00;;;5.22;33.59;101598.75;4786400;29;117969;-89
2022/03/17 08:30:02;;;;;;;8.18;3.50;;;3.70;1.00;;;5.24;32.91;101606.63;4818047;29;118126;-88
2022/03/17 08:32:32;;;;;;;8.65;4.18;;;3.70;1.00;;;4.38;33.25;101603.69;4800790;29;128748;-90
2022/03/17 08:35:01;;;;;;;9.95;4.25;;;3.40;1.00;;;4.82;33.33;101596.47;4802080;29;128920;-89
2022/03/17 08:37:30;;;;;;;7.40;3.78;;;3.50;1.00;;;4.75;33.40;101597.59;4801383;29;118872;-90
2022/03/17 08:40:03;;;;;;;9.13;3.95;;;3.60;1.00;;;4.74;32.54;101598.66;4799811;29;117866;-89
2022/03/17 08:42:32;;;;;;;8.30;3.90;;;3.60;1.00;;;4.05;33.83;101602.06;4799384;29;130085;-89
2022/03/17 08:49:18;;;;;;;7.93;4.10;;;3.50;1.00;;;4.71;33.05;101601.78;4799801;29;130192;-88
2022/03/17 08:50:51;;;;;;;10.18;3.80;;;3.60;1.00;;;4.79;32.75;101593.41;4788577;29;118762;-91
2022/03/17 08:53:33;;;;;;;10.20;4.30;;;3.70;1.00;;;5.48;32.49;101602.19;4781089;29;130816;-92
2022/03/17 08:56:47;;;;;;;9.10;3.92;;;4.00;1.00;;;5.32;32.08;101600.13;4783633;29;129136;-92
2022/03/17 08:59:30;;;;;;;7.70;4.03;;;4.00;1.00;;;5.02;33.12;101598.97;4793991;29;122342;-90
2022/03/17 09:02:21;;;;;;;;;;;4.00;1.00;;;5.24;32.09;101598.53;4800096;29;121658;-92
2022/03/17 09:15:21;;;;;;;9.20;3.85;;;4.40;1.00;;;5.99;32.29;101592.00;4812221;29;118992;-93
2022/03/17 09:18:32;;;;;;;13.20;5.38;;;4.50;1.00;;;6.32;31.68;101585.28;4812223;29;130997;-90
2022/03/17 09:21:32;;;;;;;6.55;3.78;;;4.60;1.00;;;5.80;30.98;101587.69;4793834;29;129338;-93
2022/03/17 09:24:10;;;;;;;7.53;4.00;;;4.50;1.00;;;5.71;30.77;101584.50;4783267;29;119517;-92
2022/03/17 09:29:55;;;;;;;6.97;3.97;;;4.20;1.00;;;5.81;31.03;101583.94;4780723;29;130927;-92
2022/03/17 09:33:14;;;;;;;10.30;4.30;;;4.50;1.00;;;5.38;31.40;101591.94;4818161;23;130242;31
2022/03/17 09:46:01;;;;;;;14.48;5.50;;;5.00;1.00;;;6.87;30.44;101596.84;4799321;29;130237;-92
2022/03/17 09:48:30;;;;;;;13.90;5.15;;;5.20;1.00;;;7.14;30.02;101605.28;4786802;29;119051;-92
2022/03/17 09:51:00;;;;;;;9.60;4.57;;;5.30;1.00;;;6.66;29.46;101596.38;4802818;29;119169;-91
2022/03/17 09:54:10;;;;;;;9.07;4.93;;;5.10;1.00;;;6.24;30.72;101597.25;4799525;29;128977;-90
2022/03/17 09:59:37;;;;;;;9.25;4.30;;;5.00;1.00;;;6.77;31.17;101598.25;4816933;29;120626;-90
2022/03/17 10:02:19;;;;;;;8.80;4.95;;;5.10;1.00;;;5.80;30.76;101603.84;4819638;29;121514;-92
2022/03/17 10:05:34;;;;;;;8.90;4.80;;;4.80;1.00;;;5.04;30.79;101596.88;4806898;29;128763;-93
2022/03/17 10:08:13;;;;;;;8.93;4.95;;;4.50;1.00;;;4.86;31.87;101599.53;4805642;29;129840;-91
2022/03/17 10:10:46;;;;;;;10.67;5.13;;;4.30;1.00;;;5.16;31.62;101598.84;4820069;28;120314;-91
2022/03/17 10:13:18;;;;;;;10.57;5.40;;;4.40;1.00;;;5.30;31.47;101599.50;4839492;29;118815;-92
2022/03/17 10:16:07;;;;;;;11.43;5.15;;;4.60;1.00;;;6.21;31.61;101596.88;4818857;29;129915;-93
2022/03/17 10:18:46;;;;;;;8.35;4.75;;;5.00;1.00;;;6.55;29.60;101606.09;4803705;29;129423;-92
2022/03/17 10:21:37;;;;;;;8.55;4.85;;;5.20;1.00;;;6.63;28.25;101607.63;4803751;29;118511;-90
2022/03/17 10:24:10;;;;;;;15.23;5.82;;;5.20;1.00;;;5.75;29.41;101608.06;4803575;29;119998;-90
2022/03/17 10:26:46;;;;;;;9.10;5.20;;;4.80;1.00;;;6.31;29.32;101610.66;4817489;29;128719;-90
2022/03/17 10:29:19;;;;;;;11.48;5.70;;;5.00;1.00;;;6.90;29.68;101601.75;4820421;29;129031;-92
2022/03/17 10:32:05;;;;;;;10.70;5.43;;;5.30;1.00;;;5.75;29.57;101608.06;4827072;29;119366;-89
2022/03/17 10:34:56;;;;;;;12.07;5.95;;;4.80;1.00;;;6.11;29.46;101594.75;4804535;29;119510;-91
2022/03/17 10:40:18;;;;;;;10.93;5.05;;;5.10;1.00;;;7.11;28.68;101601.16;4828062;29;129242;-91
2022/03/17 10:43:16;;;;;;;10.50;6.30;;;5.40;1.00;;;6.71;28.62;101601.88;4805580;29;119519;-92
2022/03/17 10:45:46;;;;;;;11.10;5.57;;;5.40;1.00;;;7.01;29.27;101604.47;4819112;29;118793;-91
2022/03/17 10:48:34;;;;;;;10.30;5.90;;;5.50;1.00;;;7.32;28.97;101604.28;4819129;29;130651;-91
2022/03/17 10:51:37;;;;;;;9.70;6.28;;;5.70;1.00;;;7.09;28.74;101608.69;4802990;29;128999;-91
2022/03/17 10:54:15;;;;;;;10.40;6.13;;;5.70;1.00;;;7.04;28.62;101603.16;4818432;29;121858;-90
2022/03/17 10:57:03;;;;;;;18.73;9.55;;;5.40;1.00;;;6.59;28.97;101601.03;4805531;29;121564;-90
2022/03/17 10:59:48;;;;;;;14.15;8.38;;;5.30;1.00;;;5.99;29.98;101602.81;4820965;29;129295;-91
2022/03/17 11:02:21;;;;;;;10.35;5.07;;;5.10;1.00;;;6.18;30.45;101600.84;4835748;29;130305;-89
2022/03/17 11:04:55;;;;;;;10.57;5.45;;;5.10;1.00;;;6.65;28.76;101600.13;4830250;29;117812;-90
2022/03/17 11:07:32;;;;;;;9.00;5.00;;;5.40;1.00;;;6.72;28.23;101608.94;4828416;29;117834;-88
2022/03/17 11:10:07;;;;;;;10.82;5.45;;;5.50;1.00;;;6.19;29.10;101601.69;4807558;29;128162;-90
2022/03/17 11:15:50;;;;;;;10.93;4.90;;;5.40;1.00;;;6.60;28.40;101600.00;4835858;29;119088;-88
2022/03/17 11:27:15;;;;;;;14.43;5.67;;;5.70;1.00;;;7.59;28.67;101598.34;5033707;27;1988538;-90
2022/03/17 11:30:06;;;;;;;12.43;5.20;;;6.00;1.00;;;7.59;27.71;101601.88;5054745;27;111814;-89
2022/03/17 11:32:46;;;;;;;10.43;5.40;;;5.80;1.00;;;7.30;28.38;101595.63;5057137;27;128808;-89
2022/03/17 11:35:20;;;;;;;10.95;5.63;;;5.60;1.00;;;6.65;29.41;101594.72;5087830;27;129659;-88
2022/03/17 11:38:18;;;;;;;10.63;4.85;;;5.50;1.00;;;5.73;29.93;101595.88;5069567;27;118697;-88
2022/03/17 11:41:14;;;;;;;10.40;5.22;;;5.00;1.00;;;6.26;30.29;101591.63;5066271;27;113560;-86
2022/03/17 11:44:11;;;;;;;9.02;5.10;;;5.10;1.00;;;6.91;28.64;101588.03;5035232;27;129411;-89
2022/03/17 11:46:47;;;;;;;10.43;5.03;;;5.50;1.00;;;6.63;28.62;101596.84;5052499;27;127866;-87
2022/03/17 11:49:32;;;;;;;7.65;4.72;;;5.60;1.00;;;7.07;28.74;101597.28;5069400;27;118267;-89
2022/03/17 11:52:11;;;;;;;10.27;5.00;;;5.80;1.00;;;7.31;27.50;101591.88;5053980;27;112853;-87
2022/03/17 11:54:45;;;;;;;8.82;5.00;;;5.90;1.00;;;6.32;27.67;101590.69;5053122;27;129097;-89
2022/03/17 11:57:24;;;;;;;10.20;6.22;;;5.40;1.00;;;5.99;29.10;101597.41;5085191;27;129587;-89
2022/03/17 11:59:58;;;;;;;7.90;4.35;;;5.40;1.00;;;5.97;29.27;101587.91;5071307;27;118115;-89
2022/03/17 12:02:36;;;;;;;8.70;5.07;;;5.10;1.00;;;6.24;29.04;101589.16;5055243;27;112450;-87
2022/03/17 12:05:17;;;;;;;9.27;4.78;;;5.40;1.00;;;6.28;28.35;101584.13;5071675;27;130387;-90
2022/03/17 12:07:50;;;;;;;8.32;4.40;;;5.50;1.00;;;6.54;27.79;101592.84;5072885;27;128742;-90
2022/03/17 12:11:05;;;;;;;9.30;4.80;;;5.70;1.00;;;6.34;28.44;101582.38;5056389;27;119300;-88
2022/03/17 12:14:05;;;;;;;9.38;4.63;;;5.40;1.00;;;6.42;28.57;101582.88;5071814;27;114732;-90
2022/03/17 12:16:46;;;;;;;8.63;4.68;;;5.40;1.00;;;6.17;27.61;101582.22;5038862;27;129440;-89
2022/03/17 12:19:33;;;;;;;9.13;4.50;;;5.40;1.00;;;5.99;27.56;101578.53;5036584;27;129265;-90
2022/03/17 12:22:35;;;;;;;10.03;4.73;;;5.30;1.00;;;6.88;27.00;101576.91;5073882;27;117921;-92
2022/03/17 12:25:32;;;;;;;8.48;4.43;;;5.50;1.00;;;6.90;26.70;101575.59;5085301;27;112528;-90
2022/03/17 12:28:10;;;;;;;8.02;3.85;;;5.70;1.00;;;5.93;26.40;101576.72;5079750;27;129717;-88
2022/03/17 12:30:40;;;;;;;9.13;4.82;;;5.40;1.00;;;6.71;27.14;101572.19;5086652;27;127580;-89
2022/03/17 12:33:13;;;;;;;7.88;4.10;;;5.60;1.00;;;6.37;27.01;101569.22;5083646;27;117451;-89
2022/03/17 12:35:51;;;;;;;10.75;4.88;;;5.30;1.00;;;5.92;27.16;101575.06;5080015;27;111587;-92
2022/03/17 12:38:23;;;;;;;7.22;4.18;;;5.40;1.00;;;6.11;27.30;101573.19;5064234;27;128908;-89
2022/03/17 12:40:56;;;;;;;7.95;4.05;;;5.40;1.00;;;6.62;27.54;101573.59;5060664;27;130132;-88
2022/03/17 12:43:25;;;;;;;9.52;4.00;;;5.60;1.00;;;6.86;25.48;101569.03;5059423;27;118165;-88
2022/03/17 12:46:01;;;;;;;9.65;4.40;;;5.80;1.00;;;6.88;26.18;101566.09;5068542;27;112443;-89
2022/03/17 12:48:34;;;;;;;10.50;5.80;;;5.70;1.00;;;7.13;26.19;101555.84;5060821;27;129055;-91
2022/03/17 12:51:21;;;;;;;8.40;4.75;;;5.90;1.00;;;7.01;26.59;101571.22;5044366;27;128985;-88
2022/03/17 12:53:51;;;;;;;9.90;4.43;;;5.90;1.00;;;6.55;26.86;101562.94;5044360;27;118206;-87
2022/03/17 12:56:23;;;;;;;7.93;4.68;;;5.80;1.00;;;6.83;26.59;101564.91;5042925;27;111593;-87
2022/03/17 12:58:53;;;;;;;10.30;4.47;;;5.80;1.00;;;6.24;26.04;101556.78;5044730;27;129022;-87
2022/03/17 13:01:23;;;;;;;11.40;4.85;;;5.60;1.00;;;6.97;26.05;101559.28;5030027;27;128866;-89
2022/03/17 13:03:57;;;;;;;8.48;4.75;;;5.80;1.00;;;6.88;26.18;101560.69;5032096;27;118584;-87
2022/03/17 13:09:18;;;;;;;16.65;6.15;;;5.80;1.00;;;7.53;25.38;101565.03;5064893;27;128427;-88
2022/03/17 13:15:11;;;;;;;7.75;3.85;;;5.80;1.00;;;6.73;25.38;101559.31;5061937;27;118972;-88
2022/03/17 13:17:49;;;;;;;11.88;4.55;;;5.80;1.00;;;7.35;25.91;101560.59;5062059;27;112268;-88
2022/03/17 13:20:39;;;;;;;6.63;4.38;;;6.10;1.00;;;7.51;23.99;101559.84;5066232;27;127823;-88
2022/03/17 13:23:14;;;;;;;8.85;4.40;;;6.30;1.00;;;8.16;24.67;101556.94;5041003;27;128297;-86
2022/03/17 13:26:01;;;;;;;12.32;4.68;;;6.50;1.00;;;8.53;24.36;101562.72;5054980;27;118266;-87
2022/03/17 13:28:30;;;;;;;8.88;4.25;;;6.80;1.00;;;8.42;23.80;101564.41;5021418;27;113047;-87
2022/03/17 13:31:00;;;;;;;8.23;4.35;;;6.60;1.00;;;8.39;23.33;101554.09;5040996;27;127768;-89
2022/03/17 13:33:33;;;;;;;10.18;5.03;;;6.50;1.00;;;8.35;24.25;101558.38;5004296;27;128575;-88
2022/03/17 13:36:07;;;;;;;8.20;4.22;;;6.50;1.00;;;8.44;24.53;101556.09;5020881;27;118356;-86
2022/03/17 13:38:39;;;;;;;11.48;5.55;;;6.50;1.00;;;8.49;25.05;101558.84;5004797;27;112797;-87
2022/03/17 13:41:22;;;;;;;10.18;5.50;;;6.50;1.00;;;7.71;24.15;101550.47;5020992;27;129894;-86
2022/03/17 13:44:05;;;;;;;11.45;5.32;;;6.20;1.00;;;7.83;25.50;101551.25;5021664;27;128533;-87
2022/03/17 13:46:40;;;;;;;10.80;5.95;;;6.20;1.00;;;6.96;25.23;101557.63;5037428;27;118334;-88
2022/03/17 13:49:26;;;;;;;10.13;5.35;;;5.90;1.00;;;6.95;25.35;101550.56;5019552;27;113195;-87
2022/03/17 13:51:59;;;;;;;10.65;5.15;;;5.80;1.00;;;7.04;25.01;101559.16;5038517;27;129156;-87
2022/03/17 13:54:28;;;;;;;12.38;4.57;;;5.80;1.00;;;7.27;24.91;101552.88;5021682;27;129117;-86
2022/03/17 13:57:11;;;;;;;11.05;5.55;;;5.90;1.00;;;7.11;25.51;101559.84;5040574;27;118439;-89
2022/03/17 13:59:42;;;;;;;10.52;4.75;;;5.80;1.00;;;6.80;25.53;101554.59;5026078;27;113473;-87
2022/03/17 14:02:17;;;;;;;10.07;5.20;;;5.70;1.00;;;6.90;26.04;101558.56;5007824;27;130552;-86
2022/03/17 14:04:58;;;;;;;11.60;4.70;;;5.70;1.00;;;6.90;25.54;101553.19;5007144;27;127953;-87
2022/03/17 14:07:33;;;;;;;9.63;5.32;;;5.60;1.00;;;6.65;24.72;101557.78;5022571;27;117923;-86
2022/03/17 14:10:05;;;;;;;8.35;3.97;;;5.60;1.00;;;6.93;25.66;101555.41;5038272;27;111928;-87
2022/03/17 14:12:44;;;;;;;8.25;3.60;;;5.60;1.00;;;6.61;24.18;101555.78;5055268;27;128942;-87
2022/03/17 14:15:14;;;;;;;7.22;4.10;;;5.50;1.00;;;5.92;25.20;101558.91;5022258;27;128922;-87
2022/03/17 14:17:43;;;;;;;12.50;4.35;;;5.20;1.00;;;5.25;26.57;101554.44;5006470;27;118411;-88
2022/03/17 14:20:14;;;;;;;8.63;4.50;;;5.10;1.00;;;5.34;26.75;101547.66;5004958;27;112688;-88
2022/03/17 14:26:07;;;;;;;7.07;3.50;;;5.10;1.00;;;5.79;25.75;101551.84;4993579;28;128379;-87
2022/03/17 14:31:23;;;;;;;8.82;3.95;;;5.00;1.00;;;5.66;26.12;101544.78;5038702;27;112745;-87
2022/03/17 14:33:54;;;;;;;7.90;4.00;;;5.00;1.00;;;5.99;25.91;101548.88;5041719;27;130384;-88
2022/03/17 14:36:39;;;;;;;8.43;3.92;;;5.10;1.00;;;6.22;25.82;101540.03;5041387;27;128899;-85
2022/03/17 14:39:15;;;;;;;7.45;4.30;;;5.10;1.00;;;6.00;25.98;101539.75;5057054;27;118267;-86
2022/03/17 14:42:01;;;;;;;12.00;4.30;;;5.00;1.00;;;5.44;26.70;101538.22;5058919;27;112117;-83
2022/03/17 14:44:31;;;;;;;12.27;4.05;;;4.90;1.00;;;5.71;26.49;101536.00;5026861;27;130263;-88
2022/03/17 14:47:05;;;;;;;9.95;4.55;;;4.90;1.00;;;5.74;26.09;101540.94;5057542;27;128871;-88
2022/03/17 14:49:35;;;;;;;8.98;4.60;;;4.90;1.00;;;6.26;26.34;101540.38;5004396;27;118732;-87
2022/03/17 14:52:13;;;;;;;8.57;4.00;;;5.10;1.00;;;6.22;25.52;101533.84;5019867;27;111914;-88
2022/03/17 14:54:48;;;;;;;6.25;3.70;;;5.40;1.00;;;6.18;25.20;101529.94;5019583;27;129084;-88
2022/03/17 14:57:24;;;;;;;9.40;4.00;;;5.80;1.00;;;6.66;25.29;101531.63;5076354;27;130324;-90
2022/03/17 15:00:02;;;;;;;11.57;5.13;;;6.10;1.00;;;7.24;24.68;101531.75;5060535;27;118137;-89
2022/03/17 15:02:35;;;;;;;7.68;3.65;;;6.50;1.00;;;7.58;23.87;101535.38;5040909;27;112068;-88
2022/03/17 15:05:06;;;;;;;6.95;4.13;;;6.80;1.00;;;7.27;24.37;101542.06;5023472;27;130189;-89
2022/03/17 15:07:39;;;;;;;9.48;4.50;;;6.40;1.00;;;7.23;24.25;101532.81;5039418;27;129119;-88
2022/03/17 15:10:15;;;;;;;7.15;3.85;;;5.70;1.00;;;6.33;25.85;101522.22;5024021;27;117079;-88
2022/03/17 15:12:49;;;;;;;8.50;4.35;;;5.20;1.00;;;6.27;26.85;101529.38;5054953;27;112715;-88